Centerdale, Iowa
Current Conditions -  °F | °C
As of 3:08 PM on Saturday 20 Dec 2014 (Local Time) from KIOW Reporting Station
Haze Haze  
Wind Chill: 29°   Ceiling: 900
Heat Index: 33°   Visibility: 2.5mi
Dew Point: 31°   Wind: 5mph
Humidity: 92%   Direction: 130°SE
Pressure: 30.19"   Gusts: NA
Location:  41.5542°N, 91.2913°W
Report Text: KIOW 202108Z AUTO 13004KT 2 1/2SM BR OVC009 01/M01 A3019 RMK AO2 CIG 007V010 T00061006
Loading
Personal Weather Stations






























Interactive Weather Map New forecast layout! Learn more

10-Day Weather Forecast

Advertisements
Track Severe Weather on mobile